Time;durP1;ratioP1;P1;durP2;ratioP2;P2;SDS_P1;SDS_P2;PMS_P1;PMS_P2;Temp;Humidity;BMP_temperature;BMP_pressure;BME280_temperature;BME280_humidity;BME280_pressure;Samples;Min_cycle;Max_cycle;Signal;HPM_P1;HPM_P2
2021/08/22 00:00:43;;;;;;;10.53;5.00;;;;;;;18.30;74.62;100081.05;1770660;79;21323;-77
2021/08/22 00:03:49;;;;;;;14.63;5.37;;;;;;;18.27;74.76;100080.16;1770005;81;21295;-77
2021/08/22 00:06:55;;;;;;;8.78;4.85;;;;;;;18.25;75.07;100085.06;1769651;81;21724;-77
2021/08/22 00:10:01;;;;;;;12.75;4.87;;;;;;;18.21;75.36;100082.45;1769701;81;21174;-77
2021/08/22 00:13:06;;;;;;;5.55;4.67;;;;;;;18.17;75.61;100083.47;1770518;81;21323;-77
2021/08/22 00:16:13;;;;;;;8.18;4.30;;;;;;;18.12;75.76;100084.70;1771163;81;21376;-77
2021/08/22 00:19:18;;;;;;;9.95;5.35;;;;;;;18.11;75.89;100084.37;1770838;81;21260;-77
2021/08/22 00:22:24;;;;;;;12.43;5.70;;;;;;;18.10;76.00;100076.61;1771290;81;21307;-77
2021/08/22 00:25:30;;;;;;;8.18;4.85;;;;;;;18.10;76.07;100080.77;1771182;81;21248;-77
2021/08/22 00:28:35;;;;;;;6.90;4.87;;;;;;;18.11;76.07;100086.63;1771275;81;21292;-77
2021/08/22 00:31:42;;;;;;;7.25;4.60;;;;;;;18.07;76.06;100081.25;1771304;81;21308;-77
2021/08/22 00:34:48;;;;;;;7.83;4.85;;;;;;;18.03;76.29;100091.08;1771239;81;21871;-77
2021/08/22 00:37:53;;;;;;;9.90;5.42;;;;;;;17.98;76.60;100085.40;1769666;81;21347;-77
2021/08/22 00:40:57;;;;;;;9.05;5.03;;;;;;;17.95;76.94;100085.84;1770979;81;21198;-77
2021/08/22 00:44:03;;;;;;;7.78;5.22;;;;;;;17.90;77.16;100081.55;1770255;81;21189;-77
2021/08/22 00:47:09;;;;;;;11.28;5.25;;;;;;;17.89;77.40;100078.47;1771150;81;21299;-77
2021/08/22 00:50:15;;;;;;;11.90;5.15;;;;;;;17.90;77.55;100074.63;1771209;81;21276;-77
2021/08/22 00:53:21;;;;;;;14.28;6.15;;;;;;;17.92;77.62;100070.23;1770671;81;21323;-77
2021/08/22 00:56:28;;;;;;;12.58;5.97;;;;;;;17.92;77.71;100073.84;1784732;80;21639;-77
2021/08/22 00:59:34;;;;;;;10.93;6.22;;;;;;;17.90;77.77;100075.17;1783358;80;21748;-77
2021/08/22 01:02:40;;;;;;;11.48;5.83;;;;;;;17.86;77.92;100074.77;1784562;80;21287;-77
2021/08/22 01:05:54;;;;;;;11.05;6.28;;;;;;;17.79;78.19;100079.55;1784782;80;21788;-77
2021/08/22 01:09:11;;;;;;;8.18;5.55;;;;;;;17.73;78.45;100076.27;1784445;80;21319;-77
2021/08/22 01:12:26;;;;;;;11.90;5.47;;;;;;;17.68;78.65;100076.95;1744799;80;21255;-77
2021/08/22 01:15:32;;;;;;;15.32;6.35;;;;;;;17.66;78.79;100076.88;1783382;80;21179;-77
2021/08/22 01:18:39;;;;;;;10.60;6.00;;;;;;;17.66;78.90;100079.65;1783180;80;21185;-77
2021/08/22 01:21:45;;;;;;;10.08;6.08;;;;;;;17.65;78.96;100077.42;1784969;80;21204;-77
2021/08/22 01:24:50;;;;;;;12.03;6.42;;;;;;;17.67;78.90;100082.72;1767956;80;21648;-77
2021/08/22 01:27:56;;;;;;;13.18;6.45;;;;;;;17.67;78.82;100084.09;1784692;80;21339;-77
2021/08/22 01:31:03;;;;;;;8.30;5.53;;;;;;;17.68;78.73;100081.63;1769456;80;21716;-77
2021/08/22 01:34:07;;;;;;;9.73;5.95;;;;;;;17.68;78.70;100081.63;1784137;80;21224;-77
2021/08/22 01:37:13;;;;;;;10.50;5.60;;;;;;;17.68;78.69;100085.78;1783729;80;21299;-77
2021/08/22 01:40:19;;;;;;;19.77;5.67;;;;;;;17.70;78.64;100090.56;1783572;80;21323;-77
2021/08/22 01:46:08;;;;;;;11.33;6.30;;;;;;;17.72;78.75;100084.25;1877230;76;28037;-77
2021/08/22 01:49:16;;;;;;;12.18;5.72;;;;;;;17.69;78.91;100092.49;1781715;80;21244;-77
2021/08/22 01:52:22;;;;;;;11.40;5.62;;;;;;;17.67;79.12;100088.25;1813669;79;21180;-78
2021/08/22 01:55:27;;;;;;;10.20;5.90;;;;;;;17.67;79.26;100092.39;1757268;80;21303;-78
2021/08/22 01:58:34;;;;;;;8.58;5.72;;;;;;;17.66;79.37;100093.48;1781613;80;21296;-77
2021/08/22 02:01:41;;;;;;;10.10;5.95;;;;;;;17.65;79.40;100090.41;1781109;80;21363;-77
2021/08/22 02:04:56;;;;;;;16.32;5.67;;;;;;;17.65;79.46;100095.94;1781591;80;21346;-78
2021/08/22 02:08:02;;;;;;;9.58;5.83;;;;;;;17.65;79.47;100092.63;1781527;80;21307;-77
2021/08/22 02:11:14;;;;;;;13.62;6.05;;;;;;;17.63;79.45;100098.91;1780353;80;22530;-78
2021/08/22 02:14:21;;;;;;;10.15;5.65;;;;;;;17.62;79.38;100096.69;1777664;80;21365;-78
2021/08/22 02:17:19;;;;;;;8.28;5.53;;;;;;;17.63;79.27;100094.22;1781530;80;21885;-78
2021/08/22 02:20:12;;;;;;;8.43;5.60;;;;;;;17.63;79.28;100098.91;1781574;80;21319;-78
2021/08/22 02:23:16;;;;;;;8.60;5.60;;;;;;;17.63;79.28;100104.45;1780341;80;21874;-77
2021/08/22 02:26:25;;;;;;;10.78;5.83;;;;;;;17.61;79.24;100100.53;1780369;80;21373;-77
2021/08/22 02:29:32;;;;;;;9.78;6.05;;;;;;;17.62;79.19;100104.14;1781935;80;21251;-77
2021/08/22 02:32:37;;;;;;;7.67;5.65;;;;;;;17.60;79.25;100100.77;1781610;80;21739;-77
2021/08/22 02:35:43;;;;;;;10.82;5.53;;;;;;;17.59;79.30;100099.05;1780883;80;21776;-78
2021/08/22 02:38:49;;;;;;;12.25;5.90;;;;;;;17.57;79.37;100104.82;1781491;80;21866;-77
2021/08/22 02:41:54;;;;;;;8.20;6.05;;;;;;;17.56;79.47;100110.05;1781757;80;21362;-78
2021/08/22 02:44:59;;;;;;;10.20;5.70;;;;;;;17.56;79.59;100110.59;1779541;80;22485;-77
2021/08/22 02:48:06;;;;;;;10.32;6.30;;;;;;;17.56;79.68;100115.58;1803579;79;21716;-78
2021/08/22 02:51:10;;;;;;;14.53;6.35;;;;;;;17.57;79.78;100117.27;1803549;79;21188;-77
2021/08/22 02:54:16;;;;;;;13.20;6.25;;;;;;;17.58;79.88;100123.09;1802066;79;21189;-78
2021/08/22 02:57:23;;;;;;;9.65;6.33;;;;;;;17.63;79.92;100116.35;1802781;79;21292;-78
2021/08/22 03:00:29;;;;;;;10.38;6.17;;;;;;;17.68;79.89;100121.73;1785242;79;21847;-77
2021/08/22 03:03:35;;;;;;;11.03;6.00;;;;;;;17.73;79.85;100127.44;1802806;79;21851;-77
2021/08/22 03:06:42;;;;;;;10.72;5.97;;;;;;;17.80;79.72;100128.27;1801607;79;21791;-77
2021/08/22 03:09:47;;;;;;;11.28;6.00;;;;;;;17.87;79.53;100118.80;1802869;79;21780;-78
2021/08/22 03:12:51;;;;;;;11.73;6.70;;;;;;;17.97;79.26;100118.81;1801494;79;21300;-78
2021/08/22 03:15:56;;;;;;;19.80;7.58;;;;;;;18.08;78.97;100124.45;1801482;79;21329;-78
2021/08/22 03:19:02;;;;;;;16.80;7.55;;;;;;;18.19;78.65;100128.91;1801345;79;21243;-77
2021/08/22 03:22:08;;;;;;;15.35;7.60;;;;;;;18.26;78.37;100129.14;1802951;79;21620;-77
2021/08/22 03:25:15;;;;;;;17.77;7.00;;;;;;;18.30;78.18;100132.27;1802759;79;21173;-77
2021/08/22 03:28:20;;;;;;;11.78;7.08;;;;;;;18.31;78.05;100134.83;1803683;79;21613;-78
2021/08/22 03:31:26;;;;;;;13.78;8.70;;;;;;;18.30;78.10;100133.15;1801875;79;21318;-78
2021/08/22 03:34:32;;;;;;;18.75;7.55;;;;;;;18.30;78.20;100135.91;1802907;79;21831;-78
2021/08/22 03:37:37;;;;;;;16.00;7.90;;;;;;;18.34;78.22;100130.20;1802944;79;21323;-78
2021/08/22 03:40:42;;;;;;;16.30;8.63;;;;;;;18.41;78.17;100128.75;1802861;79;21169;-78
2021/08/22 03:43:48;;;;;;;15.10;8.90;;;;;;;18.45;77.87;100126.37;1802693;79;21287;-77
2021/08/22 03:46:54;;;;;;;18.87;9.38;;;;;;;18.48;77.54;100128.11;1800837;79;21297;-77
2021/08/22 03:50:00;;;;;;;17.17;7.97;;;;;;;18.50;77.23;100123.20;1802552;79;22525;-77
2021/08/22 03:53:07;;;;;;;15.45;8.83;;;;;;;18.52;76.98;100132.11;1801512;79;21299;-77
2021/08/22 03:56:16;;;;;;;18.42;10.15;;;;;;;18.54;76.98;100134.12;1801494;79;21184;-77
2021/08/22 03:59:14;;;;;;;20.55;8.25;;;;;;;18.55;76.86;100134.42;1803031;79;21295;-77
2021/08/22 04:02:23;;;;;;;16.77;8.88;;;;;;;18.56;76.88;100133.34;1802136;79;21374;-77
2021/08/22 04:05:34;;;;;;;19.82;8.70;;;;;;;18.59;76.79;100142.58;1801101;79;21213;-77
2021/08/22 04:08:40;;;;;;;16.02;9.28;;;;;;;18.63;76.79;100141.55;1802589;79;21287;-77
2021/08/22 04:11:46;;;;;;;19.57;9.28;;;;;;;18.68;76.73;100145.01;1803253;79;21731;-77
2021/08/22 04:14:51;;;;;;;14.53;8.58;;;;;;;18.72;76.71;100143.50;1802896;79;21807;-77
2021/08/22 04:17:57;;;;;;;13.62;7.83;;;;;;;18.75;76.69;100155.51;1801482;79;21303;-77
2021/08/22 04:21:03;;;;;;;13.85;8.10;;;;;;;18.79;76.90;100158.13;1802964;79;21287;-77
2021/08/22 04:24:09;;;;;;;13.15;7.62;;;;;;;18.84;76.90;100155.49;1801737;79;21806;-77
2021/08/22 04:27:13;;;;;;;13.90;7.95;;;;;;;18.91;76.79;100157.61;1784645;79;21375;-77
2021/08/22 04:30:19;;;;;;;15.78;8.00;;;;;;;18.97;76.52;100152.54;1784082;79;21728;-77
2021/08/22 04:33:25;;;;;;;12.75;7.45;;;;;;;19.04;76.43;100160.20;1803186;79;21196;-77
2021/08/22 04:36:32;;;;;;;21.20;8.30;;;;;;;19.09;76.39;100156.72;1802544;79;21303;-77
2021/08/22 04:39:37;;;;;;;16.93;7.42;;;;;;;19.18;76.17;100162.78;1802717;79;21326;-77
2021/08/22 04:42:43;;;;;;;28.60;9.23;;;;;;;19.27;75.77;100164.98;1802901;79;21208;-77
2021/08/22 04:45:50;;;;;;;11.65;7.95;;;;;;;19.38;75.02;100161.92;1802809;79;21291;-77
2021/08/22 04:48:56;;;;;;;16.65;7.47;;;;;;;19.56;74.40;100164.62;1801082;79;21185;-77
2021/08/22 04:52:03;;;;;;;12.65;7.28;;;;;;;19.81;73.87;100166.39;1803904;79;21295;-77
2021/08/22 04:55:08;;;;;;;20.10;8.45;;;;;;;20.09;72.83;100172.58;1803030;79;21307;-77
2021/08/22 04:58:13;;;;;;;14.80;7.90;;;;;;;20.35;71.67;100160.13;1801414;79;21196;-77
2021/08/22 05:01:19;;;;;;;23.22;7.60;;;;;;;20.59;70.52;100163.18;1802093;79;21256;-77
2021/08/22 05:04:25;;;;;;;11.35;7.53;;;;;;;20.82;69.58;100166.98;1802707;79;21835;-77
2021/08/22 05:07:30;;;;;;;12.33;7.20;;;;;;;21.04;69.22;100169.93;1802345;79;21393;-77
2021/08/22 05:10:36;;;;;;;13.08;7.87;;;;;;;21.26;68.69;100177.84;1801689;79;21227;-77
2021/08/22 05:13:42;;;;;;;23.80;7.60;;;;;;;21.49;68.46;100176.90;1801479;79;21189;-77
2021/08/22 05:16:46;;;;;;;13.08;7.72;;;;;;;21.68;66.20;100181.67;1802876;79;22620;-77
2021/08/22 05:19:51;;;;;;;10.05;6.70;;;;;;;21.80;64.71;100181.05;1801366;79;21288;-77
2021/08/22 05:22:57;;;;;;;21.87;7.45;;;;;;;21.91;64.65;100184.29;1802865;79;21287;-78
2021/08/22 05:26:03;;;;;;;15.85;6.85;;;;;;;22.02;64.20;100181.14;1801150;79;21299;-77
2021/08/22 05:29:10;;;;;;;17.48;6.97;;;;;;;22.07;64.17;100191.52;1801711;79;21331;-77
2021/08/22 05:32:15;;;;;;;14.07;6.97;;;;;;;22.03;64.06;100189.78;1801140;79;21300;-77
2021/08/22 05:35:21;;;;;;;14.50;8.38;;;;;;;22.03;64.25;100191.17;1802722;79;21303;-77
2021/08/22 05:38:27;;;;;;;18.45;7.70;;;;;;;22.07;64.58;100196.53;1802080;79;21879;-77
2021/08/22 05:41:32;;;;;;;13.38;7.45;;;;;;;22.12;64.89;100196.64;1802897;79;21280;-77
2021/08/22 05:44:38;;;;;;;13.75;7.97;;;;;;;22.19;64.93;100197.30;1802629;79;21327;-77
2021/08/22 05:47:45;;;;;;;14.18;8.03;;;;;;;22.27;64.85;100194.62;1801069;79;21227;-77
2021/08/22 05:50:50;;;;;;;16.93;7.45;;;;;;;22.34;64.82;100200.01;1802742;79;21292;-77
2021/08/22 05:53:56;;;;;;;14.83;7.75;;;;;;;22.38;64.66;100201.19;1802958;79;21289;-77
2021/08/22 05:57:01;;;;;;;13.45;8.03;;;;;;;22.41;64.46;100197.89;1802857;79;21284;-77
2021/08/22 06:00:09;;;;;;;18.02;7.90;;;;;;;22.48;64.57;100197.14;1802574;79;21236;-77
2021/08/22 06:03:15;;;;;;;15.63;7.95;;;;;;;22.56;64.43;100206.45;1799653;79;21292;-78
2021/08/22 06:06:22;;;;;;;18.52;8.38;;;;;;;22.64;64.34;100206.58;1728018;83;21316;-78
2021/08/22 06:09:27;;;;;;;17.23;7.90;;;;;;;22.64;64.02;100201.84;1697724;84;21406;-78
2021/08/22 06:12:33;;;;;;;14.58;8.18;;;;;;;22.68;64.35;100199.39;1701960;84;21329;-78
2021/08/22 06:15:38;;;;;;;15.45;7.60;;;;;;;22.74;64.51;100205.31;1726551;82;21285;-78
2021/08/22 06:18:44;;;;;;;12.75;7.67;;;;;;;22.86;64.78;100204.61;1731121;81;21281;-78
2021/08/22 06:21:50;;;;;;;16.00;8.13;;;;;;;23.01;64.55;100204.02;1782743;79;21711;-78
2021/08/22 06:24:56;;;;;;;20.37;8.03;;;;;;;23.24;64.80;100200.61;1778321;79;21283;-78
2021/08/22 06:28:02;;;;;;;13.28;6.70;;;;;;;23.43;64.28;100204.19;1780574;79;21922;-78
2021/08/22 06:31:08;;;;;;;11.38;6.25;;;;;;;23.58;62.82;100203.50;1782474;79;21700;-78
2021/08/22 06:34:12;;;;;;;13.43;6.05;;;;;;;23.65;62.05;100209.72;1787403;79;21823;-78
2021/08/22 06:37:18;;;;;;;14.33;7.25;;;;;;;23.73;60.90;100208.96;1793363;79;21277;-78
2021/08/22 06:40:23;;;;;;;13.15;6.40;;;;;;;23.78;60.02;100207.61;1785227;79;21830;-78
2021/08/22 06:43:29;;;;;;;13.72;6.87;;;;;;;23.82;59.60;100212.95;1779279;79;21835;-78
2021/08/22 06:46:35;;;;;;;12.13;6.50;;;;;;;23.89;59.22;100217.75;1790047;79;21276;-78
2021/08/22 06:49:40;;;;;;;14.87;6.90;;;;;;;23.92;59.02;100217.22;1781845;80;21351;-78
2021/08/22 06:52:46;;;;;;;14.60;6.03;;;;;;;23.99;59.07;100219.22;1781496;79;21755;-77
2021/08/22 06:55:52;;;;;;;13.43;6.00;;;;;;;24.05;59.19;100225.16;1789245;79;21133;-78
2021/08/22 06:58:57;;;;;;;13.78;6.62;;;;;;;24.11;59.29;100225.48;1785309;79;21275;-77
2021/08/22 07:02:02;;;;;;;13.35;6.70;;;;;;;24.22;58.77;100222.19;1787050;79;21286;-77
2021/08/22 07:05:09;;;;;;;13.22;6.35;;;;;;;24.35;58.72;100232.07;1787937;79;21184;-78
2021/08/22 07:08:16;;;;;;;10.58;6.28;;;;;;;24.52;58.53;100231.38;1784568;79;21196;-77
2021/08/22 07:11:23;;;;;;;12.45;6.37;;;;;;;24.77;58.02;100232.07;1793727;79;21299;-78
2021/08/22 07:14:30;;;;;;;15.03;6.50;;;;;;;25.10;57.77;100228.05;1784634;79;21795;-77
2021/08/22 07:17:37;;;;;;;10.75;6.30;;;;;;;25.41;56.28;100232.34;1788655;79;21720;-78
2021/08/22 07:20:44;;;;;;;15.65;7.60;;;;;;;25.66;55.36;100238.55;1790329;79;21323;-77
2021/08/22 07:23:50;;;;;;;14.00;7.58;;;;;;;25.83;54.89;100236.36;1776905;81;21180;-77
2021/08/22 07:26:55;;;;;;;14.70;7.15;;;;;;;25.94;54.16;100240.84;1780963;79;21333;-78
2021/08/22 07:30:01;;;;;;;20.48;7.58;;;;;;;25.92;54.06;100245.87;1789239;79;21295;-77
2021/08/22 07:33:06;;;;;;;16.30;8.25;;;;;;;25.81;53.46;100250.36;1796132;79;21814;-78
2021/08/22 07:36:15;;;;;;;20.27;7.67;;;;;;;25.69;54.15;100252.01;1783967;79;21185;-77
2021/08/22 07:39:21;;;;;;;17.57;8.08;;;;;;;25.60;54.56;100252.27;1790840;79;21708;-77
2021/08/22 07:42:28;;;;;;;22.65;8.03;;;;;;;25.58;54.40;100247.48;1788178;79;21280;-77
2021/08/22 07:45:33;;;;;;;13.03;7.35;;;;;;;25.61;54.28;100244.98;1806259;79;21262;-78
2021/08/22 07:48:40;;;;;;;14.63;7.25;;;;;;;25.71;55.01;100246.39;1797253;79;21169;-77
2021/08/22 07:51:46;;;;;;;33.48;7.70;;;;;;;25.87;54.14;100242.23;1787048;79;21228;-77
2021/08/22 07:54:51;;;;;;;13.58;7.08;;;;;;;26.01;53.66;100244.75;1792791;79;21205;-77
2021/08/22 07:57:56;;;;;;;9.53;6.10;;;;;;;26.18;53.42;100244.48;1795173;79;21310;-77
2021/08/22 08:01:01;;;;;;;14.85;7.03;;;;;;;26.30;52.70;100242.77;1796850;79;21385;-78
2021/08/22 08:04:07;;;;;;;14.40;6.87;;;;;;;26.34;52.61;100244.73;1794355;79;21268;-77
2021/08/22 08:07:12;;;;;;;20.92;6.17;;;;;;;26.41;53.33;100247.27;1796632;79;21184;-78
2021/08/22 08:10:19;;;;;;;9.35;5.97;;;;;;;26.50;52.68;100242.23;1791550;79;21213;-77
2021/08/22 08:13:24;;;;;;;12.28;6.35;;;;;;;26.60;52.49;100242.77;1791151;79;21161;-78
2021/08/22 08:16:29;;;;;;;11.18;6.40;;;;;;;26.54;52.65;100238.83;1789976;79;21169;-78
2021/08/22 08:19:35;;;;;;;11.73;5.67;;;;;;;26.57;52.15;100238.28;1790403;79;21826;-78
2021/08/22 08:22:42;;;;;;;10.82;5.05;;;;;;;26.68;51.75;100239.38;1792645;79;21167;-77
2021/08/22 08:25:48;;;;;;;9.38;4.87;;;;;;;26.75;50.57;100238.50;1795790;79;21276;-77
2021/08/22 08:28:53;;;;;;;6.45;4.28;;;;;;;26.73;50.11;100233.76;1790750;79;21342;-77
2021/08/22 08:31:59;;;;;;;11.40;4.70;;;;;;;26.63;49.59;100238.00;1795029;79;21322;-78
2021/08/22 08:35:04;;;;;;;6.95;4.58;;;;;;;26.41;50.16;100229.88;1797513;79;21723;-77
2021/08/22 08:38:09;;;;;;;8.43;4.30;;;;;;;26.14;50.76;100231.58;1788822;79;21807;-78
2021/08/22 08:41:14;;;;;;;14.65;4.92;;;;;;;25.92;50.64;100226.81;1790647;79;21279;-77
2021/08/22 08:44:20;;;;;;;8.63;5.00;;;;;;;25.85;51.10;100228.51;1796929;79;21228;-78
2021/08/22 08:47:30;;;;;;;9.95;4.85;;;;;;;25.92;50.96;100225.41;1779989;79;21858;-77
2021/08/22 08:51:00;;;;;;;10.55;5.42;;;;;;;26.00;51.97;100227.10;1795979;79;21126;-78
2021/08/22 08:54:16;;;;;;;10.18;5.70;;;;;;;26.00;52.01;100229.06;1790613;79;21837;-77
2021/08/22 08:57:22;;;;;;;10.90;5.85;;;;;;;25.98;51.27;100228.52;1808484;79;21177;-77
2021/08/22 09:00:36;;;;;;;10.45;4.83;;;;;;;26.04;50.54;100221.78;1807287;79;21220;-78
2021/08/22 09:03:43;;;;;;;15.13;5.47;;;;;;;26.12;49.84;100224.59;1809339;79;21276;-77
2021/08/22 09:07:15;;;;;;;11.22;5.35;;;;;;;26.23;50.51;100227.66;1808673;79;21296;-78
2021/08/22 09:10:41;;;;;;;14.83;5.30;;;;;;;26.37;50.37;100226.52;1808706;79;22602;-78
2021/08/22 09:14:32;;;;;;;15.03;6.17;;;;;;;26.57;49.67;100225.09;1808550;79;21806;-78
2021/08/22 09:18:04;;;;;;;14.28;5.67;;;;;;;26.59;49.15;100222.86;1808406;79;21287;-78
2021/08/22 09:21:42;;;;;;;6.67;5.05;;;;;;;26.57;49.43;100218.08;1807988;79;21334;-78
2021/08/22 09:25:42;;;;;;;9.55;5.75;;;;;;;26.63;49.45;100224.51;1770923;79;21312;-77
2021/08/22 09:29:28;;;;;;;9.15;5.12;;;;;;;26.65;48.74;100222.27;1808467;79;21173;-77
2021/08/22 09:33:30;;;;;;;7.10;4.92;;;;;;;26.69;49.19;100220.59;1807182;79;21334;-77
2021/08/22 09:37:18;;;;;;;8.90;4.90;;;;;;;26.80;49.46;100218.58;1808357;79;21359;-77
2021/08/22 09:41:05;;;;;;;11.30;4.62;;;;;;;26.82;48.04;100220.52;1808194;79;21343;-77
2021/08/22 09:44:53;;;;;;;10.05;5.60;;;;;;;26.73;48.22;100233.76;1806675;79;21184;-77
2021/08/22 09:48:34;;;;;;;9.15;5.45;;;;;;;26.63;49.05;100226.78;1808573;79;21161;-78
2021/08/22 09:51:57;;;;;;;11.80;5.80;;;;;;;26.56;49.36;100231.00;1806893;79;21386;-77
2021/08/22 09:55:58;;;;;;;10.53;5.25;;;;;;;26.45;51.68;100228.22;1776693;81;21841;-77
2021/08/22 09:59:43;;;;;;;12.37;5.72;;;;;;;26.34;51.56;100230.70;1775229;80;21191;-77
2021/08/22 10:03:31;;;;;;;6.78;4.90;;;;;;;26.28;51.50;100226.80;1775238;81;21707;-77
2021/08/22 10:06:45;;;;;;;11.25;5.60;;;;;;;26.30;51.43;100224.55;1661474;85;21775;-77
2021/08/22 10:10:26;;;;;;;8.15;4.45;;;;;;;26.21;50.19;100220.94;1661318;81;21335;-78
2021/08/22 10:13:33;;;;;;;13.23;4.43;;;;;;;26.08;49.26;100231.31;1777192;81;21196;-77
2021/08/22 10:16:40;;;;;;;8.05;4.45;;;;;;;26.11;47.66;100227.96;1776938;81;21894;-77
2021/08/22 10:19:48;;;;;;;6.28;3.98;;;;;;;26.21;47.97;100226.55;1775138;81;21326;-78
2021/08/22 10:22:57;;;;;;;8.00;4.92;;;;;;;26.34;47.83;100229.31;1753397;81;22016;-78
2021/08/22 10:26:02;;;;;;;6.58;4.28;;;;;;;26.37;47.92;100234.92;1777109;81;21322;-77
2021/08/22 10:29:13;;;;;;;6.17;4.00;;;;;;;26.37;46.73;100228.75;1776712;81;21303;-78
2021/08/22 10:32:20;;;;;;;8.10;3.95;;;;;;;26.42;46.66;100225.10;1776298;81;21897;-78
2021/08/22 10:35:26;;;;;;;8.30;4.12;;;;;;;26.48;44.74;100219.78;1776657;81;21193;-77
2021/08/22 10:38:32;;;;;;;7.78;3.67;;;;;;;26.55;44.83;100220.34;1775747;81;21377;-77
2021/08/22 10:41:43;;;;;;;10.70;4.35;;;;;;;26.72;45.53;100219.45;1776705;81;21310;-78
2021/08/22 10:44:49;;;;;;;11.60;4.42;;;;;;;26.89;45.61;100221.06;1776640;81;21298;-78
2021/08/22 10:47:55;;;;;;;8.15;3.90;;;;;;;27.05;45.34;100217.62;1776538;81;21310;-78
2021/08/22 10:51:10;;;;;;;6.60;4.33;;;;;;;27.18;44.80;100210.84;1776529;81;21311;-78
2021/08/22 10:54:26;;;;;;;6.22;4.10;;;;;;;27.36;43.93;100213.56;1789508;79;21877;-77
2021/08/22 10:57:53;;;;;;;15.15;5.00;;;;;;;27.47;43.60;100208.70;1811481;79;21299;-78
2021/08/22 11:01:01;;;;;;;12.82;5.05;;;;;;;27.54;43.59;100206.43;1811134;79;21271;-78
2021/08/22 11:04:19;;;;;;;11.60;4.22;;;;;;;27.56;43.16;100206.96;1770804;79;21157;-77
2021/08/22 11:07:25;;;;;;;11.38;4.70;;;;;;;27.55;43.29;100200.24;1811502;79;21157;-77
2021/08/22 11:10:34;;;;;;;12.70;5.37;;;;;;;27.57;43.50;100216.23;1770834;79;21125;-78
2021/08/22 11:13:43;;;;;;;5.37;3.80;;;;;;;27.58;43.06;100204.72;1810302;79;21196;-77
2021/08/22 11:16:51;;;;;;;13.50;4.67;;;;;;;27.58;43.52;100208.09;1811496;79;21228;-78
2021/08/22 11:19:57;;;;;;;6.83;4.25;;;;;;;27.71;44.68;100201.80;1812003;79;21291;-78
2021/08/22 11:23:20;;;;;;;11.20;4.83;;;;;;;27.91;44.22;100202.25;1811097;79;21180;-78
2021/08/22 11:26:24;;;;;;;6.05;4.17;;;;;;;28.03;43.27;100209.14;1812276;79;21366;-78
2021/08/22 11:29:31;;;;;;;11.88;4.62;;;;;;;28.13;42.69;100203.16;1788004;79;21295;-78
2021/08/22 11:32:36;;;;;;;10.95;4.42;;;;;;;28.10;42.25;100200.39;1809940;79;21256;-78
2021/08/22 11:35:52;;;;;;;8.00;4.15;;;;;;;28.00;42.23;100197.67;1775542;79;21795;-78
2021/08/22 11:39:22;;;;;;;12.05;4.70;;;;;;;27.94;42.00;100198.26;1715454;83;21299;-78
2021/08/22 11:42:28;;;;;;;6.47;3.67;;;;;;;27.83;41.94;100200.06;1716930;82;21157;-77
2021/08/22 11:45:36;;;;;;;8.63;3.92;;;;;;;27.67;42.19;100196.52;1719922;83;21282;-78
2021/08/22 11:48:42;;;;;;;11.90;4.72;;;;;;;27.62;42.79;100199.33;1713912;82;21186;-78
2021/08/22 11:51:48;;;;;;;9.48;4.00;;;;;;;27.51;42.26;100200.81;1719783;83;21278;-78
2021/08/22 11:54:54;;;;;;;9.30;4.35;;;;;;;27.48;42.82;100201.98;1720861;82;21324;-78
2021/08/22 11:58:00;;;;;;;5.20;3.60;;;;;;;27.51;42.16;100195.77;1727356;82;21316;-78
2021/08/22 12:01:21;;;;;;;8.28;4.47;;;;;;;27.54;42.17;100191.55;1738446;81;21307;-78
2021/08/22 12:04:27;;;;;;;7.20;4.37;;;;;;;27.57;41.90;100190.41;1736999;81;21815;-78
2021/08/22 12:07:34;;;;;;;6.83;4.53;;;;;;;27.67;41.71;100204.94;1732208;81;21841;-78
2021/08/22 12:10:39;;;;;;;8.70;4.50;;;;;;;27.66;40.77;100197.63;1736150;82;21197;-78
2021/08/22 12:13:48;;;;;;;4.90;4.12;;;;;;;27.43;40.78;100196.37;1696386;84;21236;-77
2021/08/22 12:17:11;;;;;;;7.75;4.28;;;;;;;27.20;41.29;100195.98;1730622;82;21720;-78
2021/08/22 12:20:29;;;;;;;5.25;3.70;;;;;;;27.11;41.71;100202.48;1732560;82;21295;-78
2021/08/22 12:23:43;;;;;;;6.25;4.75;;;;;;;27.10;40.65;100196.57;1727834;82;21177;-77
2021/08/22 12:27:00;;;;;;;8.00;3.98;;;;;;;27.13;40.02;100195.44;1717512;83;21260;-78
2021/08/22 12:30:17;;;;;;;6.15;3.77;;;;;;;27.16;39.91;100197.68;1722022;82;21355;-78
2021/08/22 12:33:38;;;;;;;7.33;4.40;;;;;;;27.10;40.78;100204.45;1732497;82;21752;-78
2021/08/22 12:36:46;;;;;;;7.65;4.00;;;;;;;27.08;40.96;100201.08;1731849;82;21288;-77
2021/08/22 12:39:55;;;;;;;8.95;3.87;;;;;;;27.09;40.83;100197.14;1738342;81;21911;-78
2021/08/22 12:43:00;;;;;;;11.15;4.45;;;;;;;27.10;40.23;100194.63;1726669;82;21189;-78
2021/08/22 12:46:06;;;;;;;7.25;4.03;;;;;;;27.15;40.23;100191.80;1739446;81;21332;-78
2021/08/22 12:49:12;;;;;;;7.10;3.98;;;;;;;27.31;39.64;100181.88;1739331;81;22550;-78
2021/08/22 12:52:18;;;;;;;4.92;3.30;;;;;;;27.44;39.99;100188.25;1724792;81;21333;-78
2021/08/22 12:55:24;;;;;;;6.25;3.67;;;;;;;27.54;39.35;100183.13;1715867;83;21382;-78
2021/08/22 12:58:29;;;;;;;9.28;3.75;;;;;;;27.64;39.06;100179.66;1737812;82;21926;-78
2021/08/22 13:01:34;;;;;;;8.28;4.42;;;;;;;27.72;38.74;100186.67;1730803;82;21315;-78
2021/08/22 13:04:40;;;;;;;8.00;4.60;;;;;;;27.74;38.52;100185.23;1732671;82;21306;-78
2021/08/22 13:07:46;;;;;;;5.87;4.15;;;;;;;27.69;38.84;100187.21;1731962;82;21279;-78
2021/08/22 13:10:52;;;;;;;6.72;3.42;;;;;;;27.47;39.60;100188.48;1728288;82;21180;-78
2021/08/22 13:13:59;;;;;;;9.15;3.98;;;;;;;27.47;39.60;100188.48;1739187;81;21194;-78
2021/08/22 13:17:05;;;;;;;8.73;4.30;;;;;;;27.41;39.45;100190.22;1715951;83;21212;-78
2021/08/22 13:20:12;;;;;;;8.28;3.92;;;;;;;27.35;39.33;100199.82;1731740;82;21902;-78
2021/08/22 13:23:18;;;;;;;7.10;4.03;;;;;;;27.28;39.94;100191.70;1727464;82;21169;-78
2021/08/22 13:26:24;;;;;;;4.95;3.45;;;;;;;27.28;39.94;100191.70;1729129;82;21379;-78
2021/08/22 13:29:31;;;;;;;9.60;3.80;;;;;;;27.25;39.97;100183.31;1733107;82;21347;-78
2021/08/22 13:32:35;;;;;;;7.90;3.75;;;;;;;27.17;39.77;100183.07;1732107;82;21803;-77
2021/08/22 13:35:41;;;;;;;12.18;3.90;;;;;;;26.99;39.92;100191.55;1727346;82;21842;-77
2021/08/22 13:38:47;;;;;;;4.85;3.47;;;;;;;26.99;39.92;100191.55;1730407;82;21187;-77
2021/08/22 13:41:54;;;;;;;4.60;3.27;;;;;;;26.97;40.49;100185.40;1729586;82;21855;-78
2021/08/22 13:44:59;;;;;;;6.85;3.75;;;;;;;27.00;40.76;100184.23;1735016;81;21300;-77
2021/08/22 13:48:05;;;;;;;8.68;3.85;;;;;;;27.04;40.30;100183.10;1727420;82;21874;-77
2021/08/22 13:51:12;;;;;;;5.33;3.52;;;;;;;27.07;40.11;100178.89;1717322;83;21194;-78
2021/08/22 13:54:18;;;;;;;8.33;3.92;;;;;;;27.04;39.70;100177.48;1717276;83;21716;-78
2021/08/22 13:57:23;;;;;;;10.88;4.37;;;;;;;27.06;39.27;100173.84;1732468;81;21855;-78
2021/08/22 14:00:28;;;;;;;11.68;4.33;;;;;;;27.10;39.37;100176.92;1729912;82;21291;-77
2021/08/22 14:03:34;;;;;;;3.83;3.20;;;;;;;27.13;39.46;100177.19;1724074;82;21256;-78
2021/08/22 14:06:39;;;;;;;8.45;3.90;;;;;;;27.15;39.64;100186.18;1728483;82;21808;-78
2021/08/22 14:09:46;;;;;;;5.30;3.27;;;;;;;27.04;39.47;100183.10;1729832;82;21181;-78
2021/08/22 14:12:51;;;;;;;5.22;3.22;;;;;;;26.94;40.00;100185.97;1721862;82;21324;-77
2021/08/22 14:15:57;;;;;;;4.67;3.40;;;;;;;26.82;39.96;100177.03;1728880;82;21310;-77
2021/08/22 14:19:02;;;;;;;7.42;3.35;;;;;;;26.72;40.72;100178.78;1725532;82;21186;-77
2021/08/22 14:22:07;;;;;;;5.00;3.02;;;;;;;26.64;40.14;100183.57;1777047;79;21271;-78
2021/08/22 14:25:15;;;;;;;5.33;3.30;;;;;;;26.54;40.49;100175.73;1785099;79;21316;-77
2021/08/22 14:28:20;;;;;;;8.70;3.50;;;;;;;26.46;40.44;100180.81;1778520;79;21294;-77
2021/08/22 14:31:27;;;;;;;6.45;3.20;;;;;;;26.41;40.54;100172.39;1779154;79;21800;-77
2021/08/22 14:34:33;;;;;;;5.25;3.00;;;;;;;26.38;40.36;100177.16;1786125;79;21291;-78